METAR Data
IDs: Format: Raw Decoded Include TAF

Data at: 0635 UTC 23 Feb 2019

KJWY 230615Z AUTO 00000KT 1/4SM FG OVC002 09/09 A2984 RMK AO2 T00910091
KJWY 230555Z AUTO 00000KT 1/4SM FG OVC002 09/09 A2985 RMK AO2 T00900090 10090 20089 400920073
KJWY 230535Z AUTO 00000KT 1/4SM FG OVC002 09/09 A2987 RMK AO2 T00900090
KJWY 230515Z AUTO 00000KT 1/2SM FG OVC002 09/09 A2987 RMK AO2 T00900090
KJWY 230455Z AUTO 00000KT 1/2SM FG OVC002 09/09 A2988 RMK AO2 T00900090
KJWY 230435Z AUTO 00000KT 1/2SM FG OVC002 09/09 A2988 RMK AO2 T00900090
KJWY 230415Z AUTO 00000KT 1/2SM FG OVC002 09/09 A2990 RMK AO2 T00900090
KJWY 230355Z AUTO 00000KT 1/2SM FG OVC002 09/09 A2991 RMK AO2 T00900090
KJWY 230335Z AUTO 00000KT 1/2SM FG OVC002 09/09 A2992 RMK AO2 T00900090
KJWY 230315Z AUTO 00000KT 1/2SM FG OVC002 09/09 A2991 RMK AO2 T00900090
KJWY 230255Z AUTO 00000KT 1/2SM FG OVC002 09/09 A2991 RMK AO2 T00900090
KJWY 230235Z AUTO 00000KT 1/2SM FG OVC002 09/09 A2991 RMK AO2 T00900090
KJWY 230215Z AUTO 00000KT 1/2SM FG OVC002 09/09 A2991 RMK AO2 T00900090
KJWY 230155Z AUTO 08003KT 1/2SM FG OVC002 09/09 A2992 RMK AO2 T00900090
KJWY 230135Z AUTO 00000KT 1/2SM FG OVC002 09/09 A2992 RMK AO2 T00900090
KJWY 230115Z AUTO 00000KT 3/4SM BR OVC002 09/09 A2992 RMK AO2 T00900090
KJWY 230055Z AUTO 00000KT 3/4SM BR OVC002 09/09 A2992 RMK AO2 T00900090
KJWY 230035Z AUTO 00000KT 3/4SM BR OVC002 09/09 A2992 RMK AO2 T00900090
KJWY 230015Z AUTO 09004KT 1/2SM FG OVC002 09/09 A2992 RMK AO2 T00900090
KJWY 222355Z AUTO 09003KT 1/2SM FG OVC002 09/09 A2992 RMK AO2 60002 T00900090 10092 20085
KJWY 222335Z AUTO 07005KT 3/4SM BR OVC002 09/09 A2993 RMK AO2 T00900090
KJWY 222315Z AUTO 07005KT 3/4SM BR OVC002 09/09 A2993 RMK AO2 T00900090
KJWY 222255Z AUTO 06004KT 3/4SM BR OVC002 09/09 A2994 RMK AO2 T00900090
KJWY 222235Z AUTO 07004KT 1 1/2SM BR OVC002 09/09 A2994 RMK AO2 T00900090
KJWY 222215Z AUTO 06003KT 3SM BR OVC004 09/09 A2994 RMK AO2 T00910091
KJWY 222155Z AUTO 08004KT 4SM BR OVC004 09/09 A2994 RMK AO2 T00910091
KJWY 222135Z AUTO 08005KT 5SM BR OVC004 09/09 A2994 RMK AO2 T00910091
KJWY 222115Z AUTO 06006KT 7SM OVC004 09/09 A2993 RMK AO2 T00910091
KJWY 222055Z AUTO 06007KT 2SM BR OVC002 09/09 A2993 RMK AO2 60002 T00910091
KJWY 222035Z AUTO 06007KT 2SM BR OVC002 09/09 A2994 RMK AO2 T00870087
KJWY 222015Z AUTO 06004KT 1 3/4SM BR OVC002 09/09 A2995 RMK AO2 T00870087
KJWY 221955Z AUTO 06005KT 1 1/2SM RA OVC002 09/09 A2995 RMK AO2 P0002 T00870087
KJWY 221935Z AUTO 07007KT 1 1/2SM BR OVC002 09/09 A2996 RMK AO2 T00860086
KJWY 221915Z AUTO 05004KT 1 1/2SM -RA OVC002 09/09 A2998 RMK AO2 T00860086
KJWY 221855Z AUTO 03004KT 1 1/2SM RA OVC002 09/09 A2999 RMK AO2 T00860086
KJWY 221835Z AUTO 03003KT 2 1/2SM BR OVC002 09/09 A3000 RMK AO2 T00860086
KJWY 221815Z AUTO 05004KT 4SM BR OVC002 09/09 A3000 RMK AO2 T00850085
KJWY 221755Z AUTO 03004KT 4SM BR OVC002 09/09 A3001 RMK AO2 P0001 60002 T00850085 10085 20073
KJWY 221735Z AUTO 03003KT 5SM BR OVC002 08/08 A3003 RMK AO2 P0001 T00820082
KJWY 221715Z AUTO 03006KT 3SM -RA OVC002 08/08 A3003 RMK AO2 P0001 T00810081
KJWY 221655Z AUTO 03003KT 2SM RA OVC002 08/08 A3003 RMK AO2 P0001 T00800080
KJWY 221635Z AUTO 03004KT 1 3/4SM -RA OVC002 08/08 A3004 RMK AO2 P0001 T00770077
KJWY 221615Z AUTO 01003KT 1 1/4SM BR OVC002 08/08 A3004 RMK AO2 T00790079
KJWY 221555Z AUTO 01005KT 1SM BR OVC002 08/08 A3005 RMK AO2 T00780078
KJWY 221535Z AUTO 01003KT 3/4SM BR OVC002 08/08 A3006 RMK AO2 T00760076
KJWY 221515Z AUTO 00000KT 1/2SM FG OVC002 08/08 A3006 RMK AO2 T00750075
KJWY 221455Z AUTO 00000KT 1/4SM FG OVC002 08/08 A3005 RMK AO2 T00760076
KJWY 221435Z AUTO 36003KT 1/4SM FG OVC002 08/08 A3004 RMK AO2 T00750075
KJWY 221415Z AUTO 00000KT 1/4SM FG OVC002 08/08 A3002 RMK AO2 T00750075
KJWY 221355Z AUTO 01003KT 1/4SM FG OVC002 08/08 A3000 RMK AO2 T00750075
KJWY 221335Z AUTO 06004KT 1/4SM FG OVC002 07/07 A2998 RMK AO2 T00730073
KJWY 221315Z AUTO 08007KT 1/2SM FG OVC002 07/07 A2998 RMK AO2 T00730073
KJWY 221255Z AUTO 09006KT 1/2SM FG OVC002 07/07 A2998 RMK AO2 T00730073
KJWY 221235Z AUTO 10008KT 1/2SM FG OVC002 07/07 A2998 RMK AO2 T00730073
KJWY 221215Z AUTO 09009KT 1/2SM FG OVC002 07/07 A2996 RMK AO2 T00730073
KJWY 221155Z AUTO 07008KT 1/2SM FG OVC002 07/07 A2994 RMK AO2 70001 T00730073 10080 20073
KJWY 221135Z AUTO 09005KT 3/4SM BR OVC002 07/07 A2999 RMK AO2 T00730073
KJWY 221115Z AUTO 08009KT 3/4SM -DZ OVC002 07/07 A2996 RMK AO2 T00730073
KJWY 221055Z AUTO 09006KT 1SM -DZ OVC002 07/07 A2999 RMK AO2 T00730073
KJWY 221035Z AUTO 08007KT 1SM -DZ OVC002 07/07 A2998 RMK AO2 T00730073
KJWY 221015Z AUTO 07005KT 1 1/4SM -RA OVC002 07/07 A2998 RMK AO2 T00730073
KJWY 220955Z AUTO 05007KT 2 1/2SM -DZ OVC004 07/07 A2998 RMK AO2 T00730073
KJWY 220935Z AUTO 04004KT 5SM BR OVC004 07/07 A3000 RMK AO2 T00740074
KJWY 220915Z AUTO 00000KT 7SM OVC004 08/08 A3001 RMK AO2 T00750075
KJWY 220855Z AUTO 08005KT 10SM OVC006 08/08 A3000 RMK AO2 T00750075
KJWY 220835Z AUTO 06003KT 10SM OVC006 08/08 A3002 RMK AO2 T00750075
KJWY 220815Z AUTO 08004KT 10SM OVC006 08/08 A3001 RMK AO2 T00750075
KJWY 220755Z AUTO 08005KT 10SM OVC006 08/08 A3002 RMK AO2 T00760076
KJWY 220735Z AUTO 09007KT 10SM OVC008 08/08 A3000 RMK AO2 T00750075
KJWY 220715Z AUTO 35003KT 10SM OVC008 08/08 A3004 RMK AO2 T00760075
KJWY 220655Z AUTO 08006KT 10SM OVC008 08/08 A3001 RMK AO2 T00770075
KJWY 220635Z AUTO 09005KT 10SM OVC008 08/07 A3002 RMK AO2 T00800073
KJWY 220615Z AUTO 09004KT 10SM OVC008 08/07 A3002 RMK AO2 T00800070
KJWY 220555Z AUTO 08007KT 10SM OVC010 08/07 A3001 RMK AO2 T00800068 10095 20080 401100046
KJWY 220535Z AUTO 00000KT 10SM OVC010 08/07 A3006 RMK AO2 T00810070
KJWY 220515Z AUTO 00000KT 10SM OVC010 08/07 A3004 RMK AO2 T00820070
KJWY 220455Z AUTO 09007KT 10SM OVC010 08/07 A3001 RMK AO2 T00810068
KJWY 220435Z AUTO 08005KT 10SM OVC010 08/07 A3004 RMK AO2 T00840069
KJWY 220415Z AUTO 04004KT 10SM OVC010 09/07 A3002 RMK AO2 T00850070
KJWY 220355Z AUTO 00000KT 10SM OVC010 09/07 A3003 RMK AO2 T00850069
KJWY 220335Z AUTO 09008KT 10SM OVC012 09/07 A2998 RMK AO2 T00850066
KJWY 220315Z AUTO 09007KT 10SM OVC014 09/07 A2998 RMK AO2 T00860066
KJWY 220255Z AUTO 09008KT 10SM BKN014 OVC022 09/07 A2998 RMK AO2 T00860065
KJWY 220235Z AUTO 08006KT 10SM BKN020 OVC026 09/06 A2997 RMK AO2 T00870064
KJWY 220215Z AUTO 09009G14KT 10SM BKN026 OVC037 09/06 A2998 RMK AO2 T00870063
KJWY 220155Z AUTO 09007KT 10SM OVC037 09/06 A2997 RMK AO2 T00880062
KJWY 220135Z AUTO 07007KT 10SM OVC037 09/06 A2998 RMK AO2 T00890060
KJWY 220115Z AUTO 07007KT 10SM OVC035 09/06 A2997 RMK AO2 T00900061
KJWY 220055Z AUTO 09006KT 10SM OVC035 09/06 A2996 RMK AO2 T00900060
KJWY 220035Z AUTO 09005KT 10SM BKN037 OVC044 09/06 A2996 RMK AO2 T00910060
KJWY 220015Z AUTO 09006KT 10SM BKN039 OVC046 09/06 A2996 RMK AO2 T00920058
KJWY 212355Z AUTO 08006KT 10SM BKN039 OVC047 10/06 A2995 RMK AO2 T00950056 10110 20087
KJWY 212335Z AUTO 08006KT 10SM OVC045 10/05 A2997 RMK AO2 T00960052
KJWY 212315Z AUTO 09004KT 10SM BKN047 10/05 A2997 RMK AO2 T00970051
KJWY 212255Z AUTO 06007KT 10SM BKN047 10/05 A2996 RMK AO2 T00970050
KJWY 212235Z AUTO 06005KT 10SM BKN047 10/05 A2998 RMK AO2 T01010051
KJWY 212215Z AUTO 07008KT 10SM SCT047 SCT065 11/05 A2996 RMK AO2 T01050051
KJWY 212155Z AUTO 07007KT 10SM SCT065 11/05 A2997 RMK AO2 T01050050
KJWY 212135Z AUTO 09012G17KT 10SM BKN065 11/04 A2995 RMK AO2 T01050044
KJWY 212115Z AUTO 08009G18KT 10SM BKN050 OVC065 11/05 A2995 RMK AO2 T01060045
KJWY 212055Z AUTO 09013G19KT 10SM BKN050 OVC110 11/04 A2995 RMK AO2 T01060040
KJWY 212035Z AUTO 07007G18KT 10SM BKN050 OVC110 11/04 A2996 RMK AO2 T01080041
KJWY 212015Z AUTO 07005KT 10SM BKN050 OVC110 11/05 A2999 RMK AO2 T01050047
KJWY 211955Z AUTO 08009G15KT 10SM BKN055 OVC110 10/05 A2998 RMK AO2 T01030053
KJWY 211935Z AUTO 09005KT 10SM OVC055 10/06 A3002 RMK AO2 T00960058
KJWY 211915Z AUTO 08009KT 10SM OVC055 09/06 A3001 RMK AO2 T00930056
KJWY 211855Z AUTO 08007KT 10SM BKN055 BKN120 09/06 A3003 RMK AO2 T00910056